createdAt,value
2019-05-29T00:00:10.064Z,100467.19
2019-05-29T00:02:38.759Z,100468.83
2019-05-29T00:05:08.390Z,100476.94
2019-05-29T00:07:36.812Z,100474.94
2019-05-29T00:10:08.773Z,100478.61
2019-05-29T00:12:37.486Z,100481.52
2019-05-29T00:15:06.295Z,100480.64
2019-05-29T00:17:34.886Z,100485.38
2019-05-29T00:20:03.361Z,100487.54
2019-05-29T00:22:31.808Z,100495.63
2019-05-29T00:25:00.244Z,100500.11
2019-05-29T00:27:28.657Z,100508.20
2019-05-29T00:29:57.100Z,100512.81
2019-05-29T00:32:25.524Z,100510.44
2019-05-29T00:34:53.962Z,100516.45
2019-05-29T00:37:22.480Z,100514.72
2019-05-29T00:39:50.852Z,100516.52
2019-05-29T00:42:19.271Z,100522.78
2019-05-29T00:44:47.702Z,100519.92
2019-05-29T00:47:16.116Z,100524.77
2019-05-29T00:49:44.538Z,100533.60
2019-05-29T00:52:14.198Z,100541.85
2019-05-29T00:54:43.228Z,100540.55
2019-05-29T00:57:12.866Z,100541.44
2019-05-29T00:59:41.629Z,100545.60
2019-05-29T01:02:11.783Z,100543.19
2019-05-29T01:04:40.315Z,100540.64
2019-05-29T01:07:10.090Z,100541.59
2019-05-29T01:09:38.899Z,100548.45
2019-05-29T01:12:07.993Z,100550.64
2019-05-29T01:14:49.169Z,100556.98
2019-05-29T01:17:06.565Z,100563.04
2019-05-29T01:19:34.969Z,100558.11
2019-05-29T01:22:03.447Z,100563.63
2019-05-29T01:24:31.969Z,100564.89
2019-05-29T01:27:00.370Z,100568.23
2019-05-29T01:29:28.799Z,100574.61
2019-05-29T01:31:57.237Z,100580.17
2019-05-29T01:34:25.645Z,100583.55
2019-05-29T01:36:54.089Z,100578.47
2019-05-29T01:39:23.529Z,100586.19
2019-05-29T01:41:51.995Z,100586.14
2019-05-29T01:44:21.456Z,100587.83
2019-05-29T01:46:50.015Z,100586.56
2019-05-29T01:49:19.522Z,100592.20
2019-05-29T01:51:48.343Z,100599.48
2019-05-29T01:54:17.546Z,100603.77
2019-05-29T01:56:46.085Z,100604.29
2019-05-29T01:59:15.635Z,100603.34
2019-05-29T02:01:44.303Z,100614.84
2019-05-29T02:04:12.717Z,100611.52
2019-05-29T02:06:41.148Z,100620.85
2019-05-29T02:09:09.562Z,100615.34
2019-05-29T02:11:38.006Z,100618.41
2019-05-29T02:14:06.404Z,100621.47
2019-05-29T02:16:34.820Z,100621.03
2019-05-29T02:19:03.255Z,100630.48
2019-05-29T02:21:31.647Z,100630.02
2019-05-29T02:24:00.072Z,100633.03
2019-05-29T02:26:28.486Z,100638.59
2019-05-29T02:28:56.915Z,100638.25
2019-05-29T02:31:27.118Z,100641.31
2019-05-29T02:33:55.474Z,100638.75
2019-05-29T02:36:24.574Z,100645.97
2019-05-29T02:38:53.668Z,100647.69
2019-05-29T02:41:24.138Z,100646.02
2019-05-29T02:43:52.374Z,100654.58
2019-05-29T02:46:21.776Z,100649.92
2019-05-29T02:48:50.881Z,100658.02
2019-05-29T02:51:19.726Z,100655.13
2019-05-29T02:53:48.290Z,100664.90
2019-05-29T02:56:16.706Z,100673.92
2019-05-29T02:58:45.667Z,100675.20
2019-05-29T03:01:14.588Z,100670.09
2019-05-29T03:03:42.961Z,100674.84
2019-05-29T03:06:12.830Z,100685.06
2019-05-29T03:08:41.360Z,100680.75
2019-05-29T03:11:09.934Z,100692.24
2019-05-29T03:13:38.533Z,100692.72
2019-05-29T03:16:11.443Z,100704.22
2019-05-29T03:18:37.127Z,100698.66
2019-05-29T03:21:05.637Z,100701.22
2019-05-29T03:23:36.283Z,100708.11
2019-05-29T03:26:04.449Z,100708.99
2019-05-29T03:28:35.128Z,100717.48
2019-05-29T03:31:03.424Z,100719.20
2019-05-29T03:33:39.329Z,100723.91
2019-05-29T03:36:02.009Z,100729.88
2019-05-29T03:38:32.463Z,100734.55
2019-05-29T03:41:00.632Z,100744.73
2019-05-29T03:43:30.892Z,100749.00
2019-05-29T03:45:59.343Z,100751.55
2019-05-29T03:48:27.900Z,100754.10
2019-05-29T03:50:56.361Z,100763.44
2019-05-29T03:53:24.813Z,100759.64
2019-05-29T03:55:53.253Z,100762.61
2019-05-29T03:58:21.757Z,100764.31
2019-05-29T04:00:50.218Z,100767.30
2019-05-29T04:03:18.663Z,100768.25
2019-05-29T04:05:47.224Z,100767.84
2019-05-29T04:08:15.636Z,100778.46
2019-05-29T04:10:44.098Z,100780.14
2019-05-29T04:13:13.181Z,100780.98
2019-05-29T04:15:42.840Z,100785.72
2019-05-29T04:18:11.327Z,100799.33
2019-05-29T04:20:39.830Z,100801.07
2019-05-29T04:23:08.783Z,100803.20
2019-05-29T04:25:41.887Z,100812.58
2019-05-29T04:28:08.873Z,100810.85
2019-05-29T04:30:39.191Z,100816.80
2019-05-29T04:33:07.518Z,100821.03
2019-05-29T04:35:36.810Z,100821.00
2019-05-29T04:38:05.788Z,100822.73
2019-05-29T04:40:34.963Z,100820.60
2019-05-29T04:43:04.366Z,100831.64
2019-05-29T04:45:33.451Z,100832.06
2019-05-29T04:48:02.902Z,100837.17
2019-05-29T04:50:32.957Z,100838.43
2019-05-29T04:53:01.459Z,100842.66
2019-05-29T04:55:30.720Z,100850.72
2019-05-29T04:57:59.180Z,100854.52
2019-05-29T05:00:28.920Z,100854.49
2019-05-29T05:02:57.628Z,100860.41
2019-05-29T05:05:26.126Z,100863.80
2019-05-29T05:07:54.558Z,100868.84
2019-05-29T05:10:38.033Z,100870.94
2019-05-29T05:13:07.240Z,100874.24
2019-05-29T05:15:36.390Z,100876.33
2019-05-29T05:18:06.706Z,100880.59
2019-05-29T05:20:36.224Z,100882.68
2019-05-29T05:23:05.712Z,100882.69
2019-05-29T05:25:34.389Z,100887.39
2019-05-29T05:28:04.234Z,100887.72
2019-05-29T05:30:36.456Z,100897.08
2019-05-29T05:33:05.276Z,100898.75
2019-05-29T05:35:34.663Z,100900.47
2019-05-29T05:38:03.491Z,100905.07
2019-05-29T05:40:33.017Z,100905.83
2019-05-29T05:43:02.083Z,100911.14
2019-05-29T05:45:30.904Z,100915.27
2019-05-29T05:47:59.415Z,100915.26
2019-05-29T05:50:27.819Z,100913.47
2019-05-29T05:52:56.313Z,100912.20
2019-05-29T05:55:24.731Z,100919.06
2019-05-29T05:57:53.157Z,100927.84
2019-05-29T06:00:34.143Z,100931.23
2019-05-29T06:03:02.555Z,100934.52
2019-05-29T06:05:32.115Z,100937.19
2019-05-29T06:08:00.899Z,100936.02
2019-05-29T06:10:29.442Z,100935.75
2019-05-29T06:12:57.887Z,100937.50
2019-05-29T06:15:26.390Z,100940.56
2019-05-29T06:18:17.013Z,100944.58
2019-05-29T06:20:24.963Z,100943.13
2019-05-29T06:22:53.371Z,100942.34
2019-05-29T06:25:22.178Z,100946.42
2019-05-29T06:27:50.584Z,100950.42
2019-05-29T06:30:19.230Z,100956.25
2019-05-29T06:32:47.672Z,100946.18
2019-05-29T06:35:16.152Z,100956.09
2019-05-29T06:37:44.649Z,100968.55
2019-05-29T06:40:14.669Z,100965.33
2019-05-29T06:42:43.958Z,100964.48
2019-05-29T06:45:13.535Z,100974.01
2019-05-29T06:47:42.763Z,100981.70
2019-05-29T06:50:11.294Z,100980.19
2019-05-29T06:52:39.745Z,100979.86
2019-05-29T06:55:08.625Z,100983.13
2019-05-29T06:57:38.136Z,100987.62
2019-05-29T07:00:08.128Z,100985.95
2019-05-29T07:02:36.524Z,100986.56
2019-05-29T07:05:06.598Z,100988.81
2019-05-29T07:07:36.016Z,100998.30
2019-05-29T07:10:06.773Z,101007.44
2019-05-29T07:12:36.282Z,101004.55
2019-05-29T07:15:09.606Z,101008.39
2019-05-29T07:17:38.570Z,101008.86
2019-05-29T07:20:07.668Z,101010.41
2019-05-29T07:22:36.972Z,101013.31
2019-05-29T07:25:07.132Z,101011.60
2019-05-29T07:27:36.725Z,101009.15
2019-05-29T07:30:07.383Z,101003.45
2019-05-29T07:32:38.179Z,101009.53
2019-05-29T07:35:06.847Z,101018.43
2019-05-29T07:37:35.290Z,101027.11
2019-05-29T07:40:07.608Z,101023.80
2019-05-29T07:42:36.032Z,101014.05
2019-05-29T07:45:06.005Z,101039.06
2019-05-29T07:47:34.419Z,101032.92
2019-05-29T07:50:03.297Z,101038.48
2019-05-29T07:52:31.753Z,101040.33
2019-05-29T07:55:00.261Z,101042.98
2019-05-29T07:57:28.687Z,101042.53
2019-05-29T07:59:57.129Z,101039.64
2019-05-29T08:02:25.614Z,101045.69
2019-05-29T08:04:54.032Z,101047.69
2019-05-29T08:07:22.458Z,101052.02
2019-05-29T08:09:50.865Z,101048.86
2019-05-29T08:12:19.335Z,101056.45
2019-05-29T08:14:47.959Z,101058.33
2019-05-29T08:17:16.375Z,101060.00
2019-05-29T08:19:59.297Z,101062.03
2019-05-29T08:22:15.014Z,101057.12
2019-05-29T08:24:45.854Z,101063.53
2019-05-29T08:27:13.649Z,101062.28
2019-05-29T08:29:42.588Z,101061.11
2019-05-29T08:32:11.119Z,101066.70
2019-05-29T08:34:40.827Z,101066.77
2019-05-29T08:37:10.957Z,101068.41
2019-05-29T08:39:39.356Z,101071.91
2019-05-29T08:42:22.706Z,101074.37
2019-05-29T08:44:38.108Z,101071.71
2019-05-29T08:47:10.695Z,101080.99
2019-05-29T08:49:36.846Z,101081.95
2019-05-29T08:52:11.853Z,101082.58
2019-05-29T08:54:37.728Z,101081.50
2019-05-29T08:57:06.186Z,101084.41
2019-05-29T08:59:34.719Z,101083.33
2019-05-29T09:02:03.081Z,101086.33
2019-05-29T09:04:31.523Z,101083.41
2019-05-29T09:07:00.027Z,101087.44
2019-05-29T09:09:28.431Z,101088.72
2019-05-29T09:11:56.868Z,101089.84
2019-05-29T09:14:25.286Z,101092.62
2019-05-29T09:16:53.750Z,101097.17
2019-05-29T09:19:22.853Z,101099.82
2019-05-29T09:21:51.682Z,101102.06
2019-05-29T09:24:20.939Z,101100.05
2019-05-29T09:26:49.674Z,101101.11
2019-05-29T09:29:20.597Z,101105.75
2019-05-29T09:31:48.328Z,101108.18
2019-05-29T09:34:18.630Z,101114.75
2019-05-29T09:36:47.097Z,101099.96
2019-05-29T09:39:16.677Z,101109.59
2019-05-29T09:41:45.813Z,101116.91
2019-05-29T09:44:28.167Z,101113.88
2019-05-29T09:46:44.542Z,101120.80
2019-05-29T09:49:13.001Z,101121.11
2019-05-29T09:51:41.436Z,101120.47
2019-05-29T09:54:09.983Z,101126.66
2019-05-29T09:56:38.472Z,101125.72
2019-05-29T09:59:06.895Z,101128.59
2019-05-29T10:01:35.349Z,101132.08
2019-05-29T10:04:06.051Z,101130.92
2019-05-29T10:06:33.934Z,101134.53
2019-05-29T10:09:03.648Z,101132.41
2019-05-29T10:11:32.360Z,101137.17
2019-05-29T10:14:02.626Z,101141.20
2019-05-29T10:16:30.956Z,101138.14
2019-05-29T10:19:00.360Z,101138.53
2019-05-29T10:21:39.885Z,101139.59
2019-05-29T10:24:01.241Z,101141.38
2019-05-29T10:26:30.090Z,101139.34
2019-05-29T10:29:07.590Z,101137.41
2019-05-29T10:31:28.907Z,101143.50
2019-05-29T10:33:57.336Z,101141.73
2019-05-29T10:36:25.816Z,101145.89
2019-05-29T10:38:55.900Z,101138.47
2019-05-29T10:41:24.395Z,101139.09
2019-05-29T10:43:53.363Z,101139.59
2019-05-29T10:46:22.105Z,101145.92
2019-05-29T10:48:53.348Z,101142.00
2019-05-29T10:51:20.805Z,101141.13
2019-05-29T10:53:50.340Z,101140.75
2019-05-29T10:56:21.320Z,101144.89
2019-05-29T10:58:56.462Z,101147.76
2019-05-29T11:01:20.044Z,101148.16
2019-05-29T11:03:49.357Z,101147.16
2019-05-29T11:06:18.012Z,101150.00
2019-05-29T11:08:48.061Z,101140.80
2019-05-29T11:11:16.617Z,101144.94
2019-05-29T11:13:46.593Z,101140.97
2019-05-29T11:16:15.126Z,101135.39
2019-05-29T11:18:43.700Z,101132.59
2019-05-29T11:21:12.145Z,101140.94
2019-05-29T11:23:40.580Z,101142.68
2019-05-29T11:26:09.066Z,101137.84
2019-05-29T11:28:37.489Z,101133.23
2019-05-29T11:31:06.548Z,101137.30
2019-05-29T11:33:34.999Z,101141.14
2019-05-29T11:36:10.748Z,101144.23
2019-05-29T11:38:33.738Z,101139.48
2019-05-29T11:41:24.506Z,101145.02
2019-05-29T11:43:32.504Z,101136.28
2019-05-29T11:46:01.950Z,101139.40
2019-05-29T11:48:30.485Z,101141.08
2019-05-29T11:50:58.951Z,101144.07
2019-05-29T11:53:27.403Z,101144.92
2019-05-29T11:55:56.022Z,101147.15
2019-05-29T11:58:30.904Z,101145.23
2019-05-29T12:00:55.146Z,101142.72
2019-05-29T12:03:23.867Z,101141.84
2019-05-29T12:05:53.484Z,101142.44
2019-05-29T12:08:22.202Z,101132.02
2019-05-29T12:10:51.295Z,101129.01
2019-05-29T12:13:19.828Z,101133.70
2019-05-29T12:15:48.341Z,101127.77
2019-05-29T12:18:23.390Z,101133.42
2019-05-29T12:20:47.053Z,101137.77
2019-05-29T12:23:25.966Z,101137.30
2019-05-29T12:25:45.757Z,101140.27
2019-05-29T12:28:14.219Z,101138.34
2019-05-29T12:30:42.702Z,101132.67
2019-05-29T12:33:11.142Z,101131.33
2019-05-29T12:35:39.646Z,101127.76
2019-05-29T12:38:08.127Z,101131.30
2019-05-29T12:40:36.553Z,101132.41
2019-05-29T12:43:05.726Z,101128.83
2019-05-29T12:45:34.251Z,101128.75
2019-05-29T12:48:06.655Z,101122.25
2019-05-29T12:50:34.474Z,101122.89
2019-05-29T12:53:03.959Z,101120.48
2019-05-29T12:55:32.509Z,101124.44
2019-05-29T12:58:02.190Z,101120.99
2019-05-29T13:00:31.087Z,101120.20
2019-05-29T13:03:00.741Z,101119.50
2019-05-29T13:05:29.358Z,101115.38
2019-05-29T13:07:58.876Z,101121.64
2019-05-29T13:10:30.999Z,101125.05
2019-05-29T13:13:04.814Z,101119.69
2019-05-29T13:15:29.322Z,101117.47
2019-05-29T13:18:02.449Z,101120.50
2019-05-29T13:20:28.039Z,101127.30
2019-05-29T13:22:57.693Z,101129.73
2019-05-29T13:25:26.206Z,101126.33
2019-05-29T13:27:57.369Z,101121.94
2019-05-29T13:30:24.941Z,101121.37
2019-05-29T13:32:53.411Z,101128.06
2019-05-29T13:35:22.643Z,101124.73
2019-05-29T13:37:51.147Z,101126.24
2019-05-29T13:40:20.121Z,101124.58
2019-05-29T13:42:48.545Z,101122.15
2019-05-29T13:45:19.957Z,101123.24
2019-05-29T13:47:48.376Z,101118.39
2019-05-29T13:50:17.544Z,101114.20
2019-05-29T13:52:46.021Z,101118.25
2019-05-29T13:55:16.593Z,101113.59
2019-05-29T13:57:45.053Z,101108.79
2019-05-29T14:00:32.574Z,101110.64
2019-05-29T14:02:46.688Z,101115.66
2019-05-29T14:05:17.096Z,101110.88
2019-05-29T14:07:45.478Z,101111.72
2019-05-29T14:10:15.063Z,101116.78
2019-05-29T14:12:43.623Z,101116.66
2019-05-29T14:15:15.166Z,101109.81
2019-05-29T14:17:43.619Z,101112.28
2019-05-29T14:20:13.161Z,101112.17
2019-05-29T14:22:41.662Z,101106.77
2019-05-29T14:25:11.653Z,101105.89
2019-05-29T14:27:40.441Z,101111.83
2019-05-29T14:30:10.671Z,101105.28
2019-05-29T14:32:39.707Z,101106.38
2019-05-29T14:35:10.441Z,101112.54
2019-05-29T14:37:38.881Z,101110.95
2019-05-29T14:40:08.125Z,101117.03
2019-05-29T14:42:36.798Z,101115.86
2019-05-29T14:45:10.342Z,101112.00
2019-05-29T14:47:39.434Z,101119.80
2019-05-29T14:50:09.117Z,101118.02
2019-05-29T14:52:38.307Z,101124.48
2019-05-29T14:55:08.778Z,101119.68
2019-05-29T14:57:37.521Z,101119.46
2019-05-29T15:00:18.901Z,101122.69
2019-05-29T15:02:38.142Z,101123.44
2019-05-29T15:05:09.608Z,101130.93
2019-05-29T15:07:38.354Z,101127.41
2019-05-29T15:10:24.047Z,101130.13
2019-05-29T15:12:39.169Z,101130.52
2019-05-29T15:15:11.122Z,101121.60
2019-05-29T15:17:39.263Z,101130.20
2019-05-29T15:20:09.740Z,101131.20
2019-05-29T15:22:38.836Z,101130.17
2019-05-29T15:25:17.416Z,101126.84
2019-05-29T15:27:38.410Z,101131.55
2019-05-29T15:30:11.115Z,101129.56
2019-05-29T15:32:39.730Z,101127.94
2019-05-29T15:35:14.481Z,101133.83
2019-05-29T15:37:40.858Z,101136.13
2019-05-29T15:40:12.726Z,101143.36
2019-05-29T15:42:41.402Z,101145.71
2019-05-29T15:45:12.181Z,101143.23
2019-05-29T15:47:40.621Z,101143.16
2019-05-29T15:50:13.382Z,101144.95
2019-05-29T15:52:41.863Z,101144.57
2019-05-29T15:55:24.629Z,101142.36
2019-05-29T15:57:42.352Z,101136.08
2019-05-29T16:00:13.642Z,101136.55
2019-05-29T16:02:42.325Z,101139.25
2019-05-29T16:05:13.169Z,101138.98
2019-05-29T16:07:41.801Z,101139.09
2019-05-29T16:10:14.717Z,101139.13
2019-05-29T16:12:42.584Z,101128.30
2019-05-29T16:15:13.100Z,101134.03
2019-05-29T16:17:41.764Z,101130.41
2019-05-29T16:20:12.355Z,101128.80
2019-05-29T16:22:41.047Z,101132.77
2019-05-29T16:25:10.836Z,101136.35
2019-05-29T16:27:39.626Z,101135.25
2019-05-29T16:30:09.392Z,101137.08
2019-05-29T16:32:38.351Z,101138.94
2019-05-29T16:35:10.978Z,101138.37
2019-05-29T16:37:39.627Z,101142.74
2019-05-29T16:40:14.321Z,101136.64
2019-05-29T16:42:43.451Z,101134.06
2019-05-29T16:45:14.192Z,101140.84
2019-05-29T16:47:42.928Z,101134.45
2019-05-29T16:50:12.941Z,101138.44
2019-05-29T16:52:41.523Z,101138.23
2019-05-29T16:55:12.959Z,101138.97
2019-05-29T16:57:42.175Z,101144.97
2019-05-29T17:00:13.608Z,101147.87
2019-05-29T17:02:43.213Z,101145.86
2019-05-29T17:05:12.083Z,101148.48
2019-05-29T17:07:40.505Z,101148.16
2019-05-29T17:10:10.182Z,101151.10
2019-05-29T17:12:38.694Z,101145.86
2019-05-29T17:15:11.952Z,101153.02
2019-05-29T17:17:40.453Z,101154.09
2019-05-29T17:20:10.513Z,101155.43
2019-05-29T17:22:38.963Z,101153.57
2019-05-29T17:25:07.844Z,101152.98
2019-05-29T17:27:36.366Z,101152.63
2019-05-29T17:30:07.425Z,101152.95
2019-05-29T17:32:35.859Z,101153.64
2019-05-29T17:35:07.028Z,101155.28
2019-05-29T17:37:35.544Z,101159.22
2019-05-29T17:40:05.810Z,101159.96
2019-05-29T17:42:34.221Z,101158.45
2019-05-29T17:45:03.649Z,101156.81
2019-05-29T17:47:32.272Z,101160.65
2019-05-29T17:50:00.708Z,101165.23
2019-05-29T17:52:29.211Z,101163.62
2019-05-29T17:54:57.630Z,101169.86
2019-05-29T17:57:26.869Z,101169.22
2019-05-29T17:59:55.292Z,101168.80
2019-05-29T18:02:24.529Z,101165.50
2019-05-29T18:04:53.199Z,101168.95
2019-05-29T18:07:22.638Z,101166.63
2019-05-29T18:09:51.410Z,101173.82
2019-05-29T18:12:20.953Z,101169.08
2019-05-29T18:14:49.350Z,101171.78
2019-05-29T18:17:17.805Z,101167.05
2019-05-29T18:19:46.205Z,101175.00
2019-05-29T18:22:14.637Z,101173.23
2019-05-29T18:24:43.145Z,101176.20
2019-05-29T18:27:11.597Z,101174.52
2019-05-29T18:29:40.007Z,101169.36
2019-05-29T18:32:08.525Z,101169.03
2019-05-29T18:34:36.945Z,101162.73
2019-05-29T18:37:05.465Z,101165.86
2019-05-29T18:39:34.126Z,101167.23
2019-05-29T18:42:02.561Z,101166.42
2019-05-29T18:44:31.068Z,101170.30
2019-05-29T18:47:05.634Z,101177.22
2019-05-29T18:49:33.979Z,101172.66
2019-05-29T18:52:02.400Z,101173.62
2019-05-29T18:54:32.982Z,101174.94
2019-05-29T18:57:14.366Z,101177.73
2019-05-29T18:59:32.137Z,101171.44
2019-05-29T19:02:00.560Z,101171.97
2019-05-29T19:04:29.899Z,101174.72
2019-05-29T19:06:58.400Z,101179.87
2019-05-29T19:09:27.821Z,101181.41
2019-05-29T19:11:56.540Z,101180.80
2019-05-29T19:14:25.804Z,101185.38
2019-05-29T19:16:54.552Z,101184.80
2019-05-29T19:19:24.016Z,101186.92
2019-05-29T19:21:52.905Z,101187.70
2019-05-29T19:24:22.552Z,101186.06
2019-05-29T19:26:51.133Z,101192.63
2019-05-29T19:29:19.552Z,101195.30
2019-05-29T19:31:47.980Z,101198.13
2019-05-29T19:34:16.416Z,101203.36
2019-05-29T19:36:45.008Z,101198.75
2019-05-29T19:39:13.439Z,101202.61
2019-05-29T19:41:41.870Z,101200.61
2019-05-29T19:44:10.370Z,101208.00
2019-05-29T19:46:53.189Z,101215.34
2019-05-29T19:49:09.097Z,101215.92
2019-05-29T19:51:37.542Z,101221.23
2019-05-29T19:54:06.055Z,101224.38
2019-05-29T19:56:34.489Z,101221.50
2019-05-29T19:59:02.916Z,101226.30
2019-05-29T20:01:36.927Z,101230.24
2019-05-29T20:04:01.589Z,101234.25
2019-05-29T20:06:30.961Z,101230.81
2019-05-29T20:08:59.439Z,101235.11
2019-05-29T20:11:27.930Z,101239.05
2019-05-29T20:13:56.345Z,101235.65
2019-05-29T20:16:24.806Z,101242.61
2019-05-29T20:18:53.217Z,101240.98
2019-05-29T20:21:21.650Z,101241.45
2019-05-29T20:23:50.133Z,101246.31
2019-05-29T20:26:18.509Z,101246.73
2019-05-29T20:28:46.950Z,101251.14
2019-05-29T20:31:15.372Z,101243.48
2019-05-29T20:33:43.812Z,101246.53
2019-05-29T20:36:12.240Z,101248.34
2019-05-29T20:38:41.355Z,101244.17
2019-05-29T20:41:09.873Z,101242.64
2019-05-29T20:43:39.643Z,101246.11
2019-05-29T20:46:08.351Z,101246.11
2019-05-29T20:48:36.779Z,101245.33
2019-05-29T20:51:05.271Z,101240.64
2019-05-29T20:53:33.685Z,101242.72
2019-05-29T20:56:02.102Z,101234.23
2019-05-29T20:58:31.629Z,101242.90
2019-05-29T21:01:03.223Z,101239.95
2019-05-29T21:03:30.587Z,101237.06
2019-05-29T21:05:59.013Z,101241.79
2019-05-29T21:08:27.478Z,101249.09
2019-05-29T21:10:56.259Z,101252.17
2019-05-29T21:13:24.698Z,101250.55
2019-05-29T21:15:53.121Z,101247.59
2019-05-29T21:18:21.541Z,101245.42
2019-05-29T21:20:49.993Z,101251.49
2019-05-29T21:23:18.581Z,101252.01
2019-05-29T21:25:47.071Z,101250.36
2019-05-29T21:28:15.516Z,101244.44
2019-05-29T21:30:43.958Z,101254.74
2019-05-29T21:33:12.410Z,101260.75
2019-05-29T21:35:42.116Z,101257.43
2019-05-29T21:38:10.610Z,101257.10
2019-05-29T21:40:40.305Z,101259.63
2019-05-29T21:43:08.932Z,101262.23
2019-05-29T21:45:38.675Z,101264.36
2019-05-29T21:48:07.245Z,101261.02
2019-05-29T21:50:37.055Z,101267.02
2019-05-29T21:53:05.927Z,101268.70
2019-05-29T21:55:34.361Z,101272.14
2019-05-29T21:58:02.775Z,101273.88
2019-05-29T22:00:38.065Z,101271.33
2019-05-29T22:03:06.538Z,101265.80
2019-05-29T22:05:35.147Z,101267.56
2019-05-29T22:08:03.707Z,101267.92
2019-05-29T22:10:32.276Z,101269.26
2019-05-29T22:13:02.171Z,101266.28
2019-05-29T22:15:30.606Z,101266.34
2019-05-29T22:17:59.248Z,101266.33
2019-05-29T22:20:27.818Z,101268.92
2019-05-29T22:22:57.188Z,101265.94
2019-05-29T22:25:25.850Z,101267.22
2019-05-29T22:27:55.610Z,101263.40
2019-05-29T22:30:24.475Z,101263.44
2019-05-29T22:32:53.304Z,101258.37
2019-05-29T22:35:22.350Z,101261.78
2019-05-29T22:37:51.529Z,101259.64
2019-05-29T22:40:20.167Z,101260.93
2019-05-29T22:42:48.586Z,101250.28
2019-05-29T22:45:17.007Z,101253.69
2019-05-29T22:47:45.432Z,101258.81
2019-05-29T22:50:14.030Z,101249.85
2019-05-29T22:52:42.483Z,101252.45
2019-05-29T22:55:11.537Z,101252.02
2019-05-29T22:57:39.975Z,101248.19
2019-05-29T23:00:12.125Z,101242.64
2019-05-29T23:02:40.538Z,101248.19
2019-05-29T23:05:10.212Z,101247.77
2019-05-29T23:07:39.415Z,101241.81
2019-05-29T23:10:11.909Z,101246.92
2019-05-29T23:12:40.416Z,101243.50
2019-05-29T23:15:09.584Z,101248.19
2019-05-29T23:17:38.083Z,101247.78
2019-05-29T23:20:08.444Z,101243.11
2019-05-29T23:22:36.951Z,101245.23
2019-05-29T23:25:07.189Z,101244.38
2019-05-29T23:27:36.230Z,101248.22
2019-05-29T23:30:08.931Z,101240.56
2019-05-29T23:32:37.431Z,101246.08
2019-05-29T23:35:07.080Z,101236.72
2019-05-29T23:37:35.523Z,101235.86
2019-05-29T23:40:08.578Z,101238.00
2019-05-29T23:42:37.012Z,101239.27
2019-05-29T23:45:09.539Z,101236.27
2019-05-29T23:47:37.952Z,101228.62
2019-05-29T23:50:08.003Z,101226.47
2019-05-29T23:52:36.429Z,101226.48
2019-05-29T23:55:06.687Z,101228.62
2019-05-29T23:57:35.120Z,101224.80
